sensor_id;sensor_type;location;lat;lon;timestamp;temperature;humidity
18717;DHT22;9487;50.892;6.906;2022-11-18T00:01:05;10.10;99.90
18717;DHT22;9487;50.892;6.906;2022-11-18T00:03:32;10.10;99.90
18717;DHT22;9487;50.892;6.906;2022-11-18T00:06:00;10.10;99.90
18717;DHT22;9487;50.892;6.906;2022-11-18T00:08:27;10.10;99.90
18717;DHT22;9487;50.892;6.906;2022-11-18T00:10:54;10.00;99.90
18717;DHT22;9487;50.892;6.906;2022-11-18T00:13:21;10.00;99.90
18717;DHT22;9487;50.892;6.906;2022-11-18T00:16:08;10.10;99.90
18717;DHT22;9487;50.892;6.906;2022-11-18T00:18:35;10.10;99.90
18717;DHT22;9487;50.892;6.906;2022-11-18T00:21:05;10.20;99.90
18717;DHT22;9487;50.892;6.906;2022-11-18T00:23:33;10.20;99.90
18717;DHT22;9487;50.892;6.906;2022-11-18T00:26:03;10.10;99.90
18717;DHT22;9487;50.892;6.906;2022-11-18T00:28:31;10.10;99.90
18717;DHT22;9487;50.892;6.906;2022-11-18T00:31:02;10.10;99.90
18717;DHT22;9487;50.892;6.906;2022-11-18T00:33:30;10.10;99.90
18717;DHT22;9487;50.892;6.906;2022-11-18T00:35:58;10.10;99.90
18717;DHT22;9487;50.892;6.906;2022-11-18T00:38:26;10.10;99.90
18717;DHT22;9487;50.892;6.906;2022-11-18T00:40:59;10.20;99.90
18717;DHT22;9487;50.892;6.906;2022-11-18T00:43:26;10.10;99.90
18717;DHT22;9487;50.892;6.906;2022-11-18T00:45:51;10.10;99.90
18717;DHT22;9487;50.892;6.906;2022-11-18T00:48:18;10.10;99.90
18717;DHT22;9487;50.892;6.906;2022-11-18T00:50:47;10.10;99.90
18717;DHT22;9487;50.892;6.906;2022-11-18T00:53:13;10.10;99.90
18717;DHT22;9487;50.892;6.906;2022-11-18T00:55:42;10.00;99.90
18717;DHT22;9487;50.892;6.906;2022-11-18T00:58:09;10.00;99.90
18717;DHT22;9487;50.892;6.906;2022-11-18T01:00:39;10.00;99.90
18717;DHT22;9487;50.892;6.906;2022-11-18T01:03:06;10.00;99.90
18717;DHT22;9487;50.892;6.906;2022-11-18T01:05:33;9.90;99.90
18717;DHT22;9487;50.892;6.906;2022-11-18T01:08:00;10.00;99.90
18717;DHT22;9487;50.892;6.906;2022-11-18T01:10:27;10.00;99.90
18717;DHT22;9487;50.892;6.906;2022-11-18T01:12:55;9.90;99.90
18717;DHT22;9487;50.892;6.906;2022-11-18T01:15:40;9.90;99.90
18717;DHT22;9487;50.892;6.906;2022-11-18T01:18:07;9.90;99.90
18717;DHT22;9487;50.892;6.906;2022-11-18T01:20:34;9.90;99.90
18717;DHT22;9487;50.892;6.906;2022-11-18T01:23:02;10.00;99.90
18717;DHT22;9487;50.892;6.906;2022-11-18T01:25:29;10.00;99.90
18717;DHT22;9487;50.892;6.906;2022-11-18T01:27:57;10.00;99.90
18717;DHT22;9487;50.892;6.906;2022-11-18T01:30:24;10.00;99.90
18717;DHT22;9487;50.892;6.906;2022-11-18T01:32:51;9.90;99.90
18717;DHT22;9487;50.892;6.906;2022-11-18T01:35:18;10.00;99.90
18717;DHT22;9487;50.892;6.906;2022-11-18T01:37:45;9.90;99.90
18717;DHT22;9487;50.892;6.906;2022-11-18T01:40:12;9.90;99.90
18717;DHT22;9487;50.892;6.906;2022-11-18T01:42:39;9.90;99.90
18717;DHT22;9487;50.892;6.906;2022-11-18T01:45:23;9.80;99.90
18717;DHT22;9487;50.892;6.906;2022-11-18T01:47:54;9.80;99.90
18717;DHT22;9487;50.892;6.906;2022-11-18T01:50:23;9.80;99.90
18717;DHT22;9487;50.892;6.906;2022-11-18T01:52:51;9.90;99.90
18717;DHT22;9487;50.892;6.906;2022-11-18T01:55:21;9.90;99.90
18717;DHT22;9487;50.892;6.906;2022-11-18T01:57:50;9.90;99.90
18717;DHT22;9487;50.892;6.906;2022-11-18T02:00:21;9.90;99.90
18717;DHT22;9487;50.892;6.906;2022-11-18T02:02:48;10.00;99.90
18717;DHT22;9487;50.892;6.906;2022-11-18T02:05:15;10.00;99.90
18717;DHT22;9487;50.892;6.906;2022-11-18T02:07:43;10.00;99.90
18717;DHT22;9487;50.892;6.906;2022-11-18T02:10:18;10.00;99.90
18717;DHT22;9487;50.892;6.906;2022-11-18T02:12:45;10.00;99.90
18717;DHT22;9487;50.892;6.906;2022-11-18T02:15:12;9.90;99.90
18717;DHT22;9487;50.892;6.906;2022-11-18T02:17:46;9.90;99.90
18717;DHT22;9487;50.892;6.906;2022-11-18T02:20:25;9.90;99.90
18717;DHT22;9487;50.892;6.906;2022-11-18T02:28:57;9.80;99.90
18717;DHT22;9487;50.892;6.906;2022-11-18T02:31:31;9.80;99.90
18717;DHT22;9487;50.892;6.906;2022-11-18T02:34:05;9.80;99.90
18717;DHT22;9487;50.892;6.906;2022-11-18T02:36:39;9.80;99.90
18717;DHT22;9487;50.892;6.906;2022-11-18T02:39:11;9.80;99.90
18717;DHT22;9487;50.892;6.906;2022-11-18T02:41:43;9.90;99.90
18717;DHT22;9487;50.892;6.906;2022-11-18T02:44:15;9.90;99.90
18717;DHT22;9487;50.892;6.906;2022-11-18T02:46:45;9.90;99.90
18717;DHT22;9487;50.892;6.906;2022-11-18T02:49:18;9.90;99.90
18717;DHT22;9487;50.892;6.906;2022-11-18T02:51:47;9.90;99.90
18717;DHT22;9487;50.892;6.906;2022-11-18T02:54:14;10.00;99.90
18717;DHT22;9487;50.892;6.906;2022-11-18T02:56:43;9.90;99.90
18717;DHT22;9487;50.892;6.906;2022-11-18T02:59:10;9.90;99.90
18717;DHT22;9487;50.892;6.906;2022-11-18T03:01:39;9.90;99.90
18717;DHT22;9487;50.892;6.906;2022-11-18T03:04:06;9.90;99.90
18717;DHT22;9487;50.892;6.906;2022-11-18T03:06:35;9.90;99.90
18717;DHT22;9487;50.892;6.906;2022-11-18T03:09:08;9.90;99.90
18717;DHT22;9487;50.892;6.906;2022-11-18T03:11:44;9.90;99.90
18717;DHT22;9487;50.892;6.906;2022-11-18T03:14:21;9.80;99.90
18717;DHT22;9487;50.892;6.906;2022-11-18T03:16:57;9.80;99.90
18717;DHT22;9487;50.892;6.906;2022-11-18T03:19:35;9.90;99.90
18717;DHT22;9487;50.892;6.906;2022-11-18T03:22:10;9.90;99.90
18717;DHT22;9487;50.892;6.906;2022-11-18T03:24:41;9.80;99.90
18717;DHT22;9487;50.892;6.906;2022-11-18T03:27:13;9.70;99.90
18717;DHT22;9487;50.892;6.906;2022-11-18T03:29:44;9.70;99.90
18717;DHT22;9487;50.892;6.906;2022-11-18T03:32:17;9.70;99.90
18717;DHT22;9487;50.892;6.906;2022-11-18T03:34:46;9.80;99.90
18717;DHT22;9487;50.892;6.906;2022-11-18T03:37:16;9.80;99.90
18717;DHT22;9487;50.892;6.906;2022-11-18T03:39:47;9.80;99.90
18717;DHT22;9487;50.892;6.906;2022-11-18T03:42:19;9.80;99.90
18717;DHT22;9487;50.892;6.906;2022-11-18T03:44:50;9.90;99.90
18717;DHT22;9487;50.892;6.906;2022-11-18T03:47:23;9.80;99.90
18717;DHT22;9487;50.892;6.906;2022-11-18T03:49:54;9.90;99.90
18717;DHT22;9487;50.892;6.906;2022-11-18T03:52:25;9.80;99.90
18717;DHT22;9487;50.892;6.906;2022-11-18T03:54:54;9.80;99.90
18717;DHT22;9487;50.892;6.906;2022-11-18T03:57:26;9.80;99.90
18717;DHT22;9487;50.892;6.906;2022-11-18T04:00:00;9.80;99.90
18717;DHT22;9487;50.892;6.906;2022-11-18T04:02:29;9.80;99.90
18717;DHT22;9487;50.892;6.906;2022-11-18T04:04:58;9.90;99.90
18717;DHT22;9487;50.892;6.906;2022-11-18T04:07:30;9.90;99.90
18717;DHT22;9487;50.892;6.906;2022-11-18T04:10:03;9.90;99.90
18717;DHT22;9487;50.892;6.906;2022-11-18T04:12:37;9.80;99.90
18717;DHT22;9487;50.892;6.906;2022-11-18T04:15:06;9.80;99.90
18717;DHT22;9487;50.892;6.906;2022-11-18T04:17:35;9.80;99.90
18717;DHT22;9487;50.892;6.906;2022-11-18T04:20:02;9.70;99.90
18717;DHT22;9487;50.892;6.906;2022-11-18T04:22:29;9.80;99.90
18717;DHT22;9487;50.892;6.906;2022-11-18T04:24:55;9.80;99.90
18717;DHT22;9487;50.892;6.906;2022-11-18T04:27:22;9.80;99.90
18717;DHT22;9487;50.892;6.906;2022-11-18T04:29:49;9.80;99.90
18717;DHT22;9487;50.892;6.906;2022-11-18T04:32:16;9.80;99.90
18717;DHT22;9487;50.892;6.906;2022-11-18T04:34:44;9.80;99.90
18717;DHT22;9487;50.892;6.906;2022-11-18T04:37:11;9.70;99.90
18717;DHT22;9487;50.892;6.906;2022-11-18T04:39:38;9.70;99.90
18717;DHT22;9487;50.892;6.906;2022-11-18T04:42:05;9.70;99.90
18717;DHT22;9487;50.892;6.906;2022-11-18T04:44:32;9.70;99.90
18717;DHT22;9487;50.892;6.906;2022-11-18T04:47:01;9.70;99.90
18717;DHT22;9487;50.892;6.906;2022-11-18T04:49:28;9.70;99.90
18717;DHT22;9487;50.892;6.906;2022-11-18T04:51:57;9.70;99.90
18717;DHT22;9487;50.892;6.906;2022-11-18T04:54:25;9.70;99.90
18717;DHT22;9487;50.892;6.906;2022-11-18T04:56:52;9.70;99.90
18717;DHT22;9487;50.892;6.906;2022-11-18T04:59:20;9.80;99.90
18717;DHT22;9487;50.892;6.906;2022-11-18T05:01:48;9.80;99.90
18717;DHT22;9487;50.892;6.906;2022-11-18T05:04:16;9.80;99.90
18717;DHT22;9487;50.892;6.906;2022-11-18T05:06:43;9.90;99.90
18717;DHT22;9487;50.892;6.906;2022-11-18T05:09:11;9.80;99.90
18717;DHT22;9487;50.892;6.906;2022-11-18T05:11:39;9.80;99.90
18717;DHT22;9487;50.892;6.906;2022-11-18T05:14:24;9.80;99.90
18717;DHT22;9487;50.892;6.906;2022-11-18T05:16:51;9.80;99.90
18717;DHT22;9487;50.892;6.906;2022-11-18T05:19:18;9.80;99.90
18717;DHT22;9487;50.892;6.906;2022-11-18T05:21:45;9.90;99.90
18717;DHT22;9487;50.892;6.906;2022-11-18T05:24:14;9.80;99.90
18717;DHT22;9487;50.892;6.906;2022-11-18T05:26:41;9.80;99.90
18717;DHT22;9487;50.892;6.906;2022-11-18T05:29:08;9.80;99.90
18717;DHT22;9487;50.892;6.906;2022-11-18T05:31:35;9.80;99.90
18717;DHT22;9487;50.892;6.906;2022-11-18T05:34:02;9.80;99.90
18717;DHT22;9487;50.892;6.906;2022-11-18T05:36:29;9.80;99.90
18717;DHT22;9487;50.892;6.906;2022-11-18T05:38:57;9.70;99.90
18717;DHT22;9487;50.892;6.906;2022-11-18T05:41:26;9.70;99.90
18717;DHT22;9487;50.892;6.906;2022-11-18T05:44:10;9.70;99.90
18717;DHT22;9487;50.892;6.906;2022-11-18T05:46:37;9.70;99.90
18717;DHT22;9487;50.892;6.906;2022-11-18T05:49:03;9.70;99.90
18717;DHT22;9487;50.892;6.906;2022-11-18T05:51:30;9.70;99.90
18717;DHT22;9487;50.892;6.906;2022-11-18T05:53:57;9.70;99.90
18717;DHT22;9487;50.892;6.906;2022-11-18T05:56:27;9.70;99.90
18717;DHT22;9487;50.892;6.906;2022-11-18T05:58:55;9.60;99.90
18717;DHT22;9487;50.892;6.906;2022-11-18T06:01:25;9.50;99.90
18717;DHT22;9487;50.892;6.906;2022-11-18T06:03:52;9.50;99.90
18717;DHT22;9487;50.892;6.906;2022-11-18T06:06:21;9.50;99.90
18717;DHT22;9487;50.892;6.906;2022-11-18T06:08:55;9.50;99.90
18717;DHT22;9487;50.892;6.906;2022-11-18T06:11:23;9.50;99.90
18717;DHT22;9487;50.892;6.906;2022-11-18T06:13:55;9.40;99.90
18717;DHT22;9487;50.892;6.906;2022-11-18T06:16:27;9.40;99.90
18717;DHT22;9487;50.892;6.906;2022-11-18T06:18:54;9.40;99.90
18717;DHT22;9487;50.892;6.906;2022-11-18T06:21:22;9.50;99.90
18717;DHT22;9487;50.892;6.906;2022-11-18T06:23:49;9.40;99.90
18717;DHT22;9487;50.892;6.906;2022-11-18T06:26:16;9.50;99.90
18717;DHT22;9487;50.892;6.906;2022-11-18T06:28:45;9.40;99.90
18717;DHT22;9487;50.892;6.906;2022-11-18T06:31:13;9.40;99.90
18717;DHT22;9487;50.892;6.906;2022-11-18T06:33:41;9.50;99.90
18717;DHT22;9487;50.892;6.906;2022-11-18T06:36:08;9.60;99.90
18717;DHT22;9487;50.892;6.906;2022-11-18T06:38:36;9.50;99.90
18717;DHT22;9487;50.892;6.906;2022-11-18T06:41:03;9.40;99.90
18717;DHT22;9487;50.892;6.906;2022-11-18T06:43:30;9.40;99.90
18717;DHT22;9487;50.892;6.906;2022-11-18T06:46:08;9.40;99.90
18717;DHT22;9487;50.892;6.906;2022-11-18T06:48:54;9.40;99.90
18717;DHT22;9487;50.892;6.906;2022-11-18T06:51:22;9.40;99.90
18717;DHT22;9487;50.892;6.906;2022-11-18T06:53:49;9.50;99.90
18717;DHT22;9487;50.892;6.906;2022-11-18T06:56:17;9.40;99.90
18717;DHT22;9487;50.892;6.906;2022-11-18T06:58:45;9.40;99.90
18717;DHT22;9487;50.892;6.906;2022-11-18T07:01:13;9.50;99.90
18717;DHT22;9487;50.892;6.906;2022-11-18T07:03:41;9.50;99.90
18717;DHT22;9487;50.892;6.906;2022-11-18T07:06:10;9.50;99.90
18717;DHT22;9487;50.892;6.906;2022-11-18T07:08:39;9.40;99.90
18717;DHT22;9487;50.892;6.906;2022-11-18T07:11:07;9.40;99.90
18717;DHT22;9487;50.892;6.906;2022-11-18T07:13:35;9.40;99.90
18717;DHT22;9487;50.892;6.906;2022-11-18T07:16:03;9.40;99.90
18717;DHT22;9487;50.892;6.906;2022-11-18T07:18:31;9.50;99.90
18717;DHT22;9487;50.892;6.906;2022-11-18T07:21:00;9.50;99.90
18717;DHT22;9487;50.892;6.906;2022-11-18T07:23:30;9.50;99.90
18717;DHT22;9487;50.892;6.906;2022-11-18T07:25:57;9.50;99.90
18717;DHT22;9487;50.892;6.906;2022-11-18T07:28:24;9.50;99.90
18717;DHT22;9487;50.892;6.906;2022-11-18T07:30:51;9.60;99.90
18717;DHT22;9487;50.892;6.906;2022-11-18T07:33:18;9.60;99.90
18717;DHT22;9487;50.892;6.906;2022-11-18T07:35:45;9.60;99.90
18717;DHT22;9487;50.892;6.906;2022-11-18T07:38:12;9.70;99.90
18717;DHT22;9487;50.892;6.906;2022-11-18T07:40:40;9.70;99.90
18717;DHT22;9487;50.892;6.906;2022-11-18T07:43:07;9.70;99.90
18717;DHT22;9487;50.892;6.906;2022-11-18T07:45:34;9.80;99.90
18717;DHT22;9487;50.892;6.906;2022-11-18T07:48:01;9.80;99.90
18717;DHT22;9487;50.892;6.906;2022-11-18T07:50:28;10.10;99.90
18717;DHT22;9487;50.892;6.906;2022-11-18T07:52:55;10.40;99.90
18717;DHT22;9487;50.892;6.906;2022-11-18T07:55:23;10.70;99.90
18717;DHT22;9487;50.892;6.906;2022-11-18T07:57:51;10.80;99.90
18717;DHT22;9487;50.892;6.906;2022-11-18T08:00:18;10.70;99.90
18717;DHT22;9487;50.892;6.906;2022-11-18T08:02:49;10.50;99.90
18717;DHT22;9487;50.892;6.906;2022-11-18T08:05:16;10.50;99.90
18717;DHT22;9487;50.892;6.906;2022-11-18T08:07:43;10.50;99.90
18717;DHT22;9487;50.892;6.906;2022-11-18T08:10:10;10.40;99.90
18717;DHT22;9487;50.892;6.906;2022-11-18T08:12:37;10.30;99.90
18717;DHT22;9487;50.892;6.906;2022-11-18T08:15:06;10.30;99.90
18717;DHT22;9487;50.892;6.906;2022-11-18T08:17:33;10.30;99.90
18717;DHT22;9487;50.892;6.906;2022-11-18T08:20:00;10.30;99.90
18717;DHT22;9487;50.892;6.906;2022-11-18T08:22:27;10.50;99.90
18717;DHT22;9487;50.892;6.906;2022-11-18T08:24:54;10.50;99.90
18717;DHT22;9487;50.892;6.906;2022-11-18T08:27:21;10.50;99.90
18717;DHT22;9487;50.892;6.906;2022-11-18T08:29:48;10.40;99.90
18717;DHT22;9487;50.892;6.906;2022-11-18T08:32:16;10.50;99.90
18717;DHT22;9487;50.892;6.906;2022-11-18T08:34:43;10.60;99.90
18717;DHT22;9487;50.892;6.906;2022-11-18T08:37:09;10.70;99.90
18717;DHT22;9487;50.892;6.906;2022-11-18T08:39:36;10.70;99.90
18717;DHT22;9487;50.892;6.906;2022-11-18T08:42:03;10.70;99.90
18717;DHT22;9487;50.892;6.906;2022-11-18T08:44:30;10.70;99.90
18717;DHT22;9487;50.892;6.906;2022-11-18T08:46:59;10.70;99.90
18717;DHT22;9487;50.892;6.906;2022-11-18T08:49:27;10.80;99.90
18717;DHT22;9487;50.892;6.906;2022-11-18T08:51:54;10.80;99.90
18717;DHT22;9487;50.892;6.906;2022-11-18T08:54:21;10.90;99.90
18717;DHT22;9487;50.892;6.906;2022-11-18T08:56:48;11.10;99.90
18717;DHT22;9487;50.892;6.906;2022-11-18T08:59:15;11.40;99.90
18717;DHT22;9487;50.892;6.906;2022-11-18T09:01:43;11.60;99.90
18717;DHT22;9487;50.892;6.906;2022-11-18T09:04:09;11.70;99.90
18717;DHT22;9487;50.892;6.906;2022-11-18T09:06:38;11.80;99.90
18717;DHT22;9487;50.892;6.906;2022-11-18T09:09:05;11.90;99.90
18717;DHT22;9487;50.892;6.906;2022-11-18T09:11:33;12.00;99.90
18717;DHT22;9487;50.892;6.906;2022-11-18T09:14:01;12.00;99.90
18717;DHT22;9487;50.892;6.906;2022-11-18T09:16:32;12.00;99.90
18717;DHT22;9487;50.892;6.906;2022-11-18T09:19:00;12.10;99.90
18717;DHT22;9487;50.892;6.906;2022-11-18T09:21:27;12.00;99.90
18717;DHT22;9487;50.892;6.906;2022-11-18T09:23:55;12.00;99.90
18717;DHT22;9487;50.892;6.906;2022-11-18T09:26:22;12.00;99.90
18717;DHT22;9487;50.892;6.906;2022-11-18T09:28:52;12.10;99.90
18717;DHT22;9487;50.892;6.906;2022-11-18T09:31:19;12.00;99.90
18717;DHT22;9487;50.892;6.906;2022-11-18T09:33:46;12.10;99.90
18717;DHT22;9487;50.892;6.906;2022-11-18T09:36:15;12.20;99.90
18717;DHT22;9487;50.892;6.906;2022-11-18T09:38:42;12.20;99.90
18717;DHT22;9487;50.892;6.906;2022-11-18T09:41:28;12.10;99.90
18717;DHT22;9487;50.892;6.906;2022-11-18T09:44:05;12.00;99.90
18717;DHT22;9487;50.892;6.906;2022-11-18T09:46:43;12.00;99.90
18717;DHT22;9487;50.892;6.906;2022-11-18T09:49:24;12.00;99.90
18717;DHT22;9487;50.892;6.906;2022-11-18T09:51:53;11.90;99.90
18717;DHT22;9487;50.892;6.906;2022-11-18T09:54:21;11.80;99.90
18717;DHT22;9487;50.892;6.906;2022-11-18T09:56:52;11.90;99.90
18717;DHT22;9487;50.892;6.906;2022-11-18T09:59:20;11.90;99.90
18717;DHT22;9487;50.892;6.906;2022-11-18T10:01:48;11.90;99.90
18717;DHT22;9487;50.892;6.906;2022-11-18T10:04:18;11.90;99.90
18717;DHT22;9487;50.892;6.906;2022-11-18T10:06:46;12.00;99.90
18717;DHT22;9487;50.892;6.906;2022-11-18T10:09:22;12.10;99.90
18717;DHT22;9487;50.892;6.906;2022-11-18T10:12:07;12.20;99.90
18717;DHT22;9487;50.892;6.906;2022-11-18T10:14:48;12.50;99.90
18717;DHT22;9487;50.892;6.906;2022-11-18T10:17:30;12.60;99.90
18717;DHT22;9487;50.892;6.906;2022-11-18T10:20:13;12.60;99.90
18717;DHT22;9487;50.892;6.906;2022-11-18T10:22:47;12.60;99.90
18717;DHT22;9487;50.892;6.906;2022-11-18T10:25:16;12.80;99.90
18717;DHT22;9487;50.892;6.906;2022-11-18T10:27:46;12.90;99.90
18717;DHT22;9487;50.892;6.906;2022-11-18T10:30:15;13.00;99.90
18717;DHT22;9487;50.892;6.906;2022-11-18T10:32:53;13.00;99.90
18717;DHT22;9487;50.892;6.906;2022-11-18T10:35:24;13.00;99.90
18717;DHT22;9487;50.892;6.906;2022-11-18T10:38:03;13.00;99.90
18717;DHT22;9487;50.892;6.906;2022-11-18T10:40:31;12.40;99.90
18717;DHT22;9487;50.892;6.906;2022-11-18T10:43:00;12.30;99.90
18717;DHT22;9487;50.892;6.906;2022-11-18T10:45:29;12.30;99.90
18717;DHT22;9487;50.892;6.906;2022-11-18T10:47:58;12.60;99.90
18717;DHT22;9487;50.892;6.906;2022-11-18T10:50:32;12.80;99.90
18717;DHT22;9487;50.892;6.906;2022-11-18T10:52:59;13.00;99.90
18717;DHT22;9487;50.892;6.906;2022-11-18T10:55:27;13.20;99.90
18717;DHT22;9487;50.892;6.906;2022-11-18T10:57:57;13.40;99.90
18717;DHT22;9487;50.892;6.906;2022-11-18T11:00:44;13.40;99.90
18717;DHT22;9487;50.892;6.906;2022-11-18T11:03:23;13.30;99.90
18717;DHT22;9487;50.892;6.906;2022-11-18T11:06:13;13.10;99.90
18717;DHT22;9487;50.892;6.906;2022-11-18T11:08:46;13.00;99.90
18717;DHT22;9487;50.892;6.906;2022-11-18T11:11:23;13.10;99.90
18717;DHT22;9487;50.892;6.906;2022-11-18T11:13:53;13.10;99.90
18717;DHT22;9487;50.892;6.906;2022-11-18T11:16:28;12.60;99.90
18717;DHT22;9487;50.892;6.906;2022-11-18T11:18:59;12.30;99.90
18717;DHT22;9487;50.892;6.906;2022-11-18T11:21:27;12.20;99.90
18717;DHT22;9487;50.892;6.906;2022-11-18T11:23:54;12.10;99.90
18717;DHT22;9487;50.892;6.906;2022-11-18T11:26:27;12.10;99.90
18717;DHT22;9487;50.892;6.906;2022-11-18T11:29:01;12.10;99.90
18717;DHT22;9487;50.892;6.906;2022-11-18T11:31:38;12.10;99.90
18717;DHT22;9487;50.892;6.906;2022-11-18T11:34:15;12.00;99.90
18717;DHT22;9487;50.892;6.906;2022-11-18T11:36:49;12.00;99.90
18717;DHT22;9487;50.892;6.906;2022-11-18T11:39:39;12.00;99.90
18717;DHT22;9487;50.892;6.906;2022-11-18T11:42:17;12.10;99.90
18717;DHT22;9487;50.892;6.906;2022-11-18T11:45:00;12.40;99.90
18717;DHT22;9487;50.892;6.906;2022-11-18T11:47:43;12.50;99.90
18717;DHT22;9487;50.892;6.906;2022-11-18T11:50:21;12.70;99.90
18717;DHT22;9487;50.892;6.906;2022-11-18T11:53:01;12.70;99.90
18717;DHT22;9487;50.892;6.906;2022-11-18T11:55:38;12.80;99.90
18717;DHT22;9487;50.892;6.906;2022-11-18T11:58:18;12.80;99.90
18717;DHT22;9487;50.892;6.906;2022-11-18T12:00:58;12.80;99.90
18717;DHT22;9487;50.892;6.906;2022-11-18T12:03:40;12.50;99.90
18717;DHT22;9487;50.892;6.906;2022-11-18T12:06:10;12.50;99.90
18717;DHT22;9487;50.892;6.906;2022-11-18T12:08:40;12.60;99.90
18717;DHT22;9487;50.892;6.906;2022-11-18T12:11:13;12.40;99.90
18717;DHT22;9487;50.892;6.906;2022-11-18T12:13:45;12.50;99.90
18717;DHT22;9487;50.892;6.906;2022-11-18T12:16:24;12.30;99.90
18717;DHT22;9487;50.892;6.906;2022-11-18T12:18:58;12.30;99.90
18717;DHT22;9487;50.892;6.906;2022-11-18T12:21:52;12.20;99.90
18717;DHT22;9487;50.892;6.906;2022-11-18T12:24:28;12.20;99.90
18717;DHT22;9487;50.892;6.906;2022-11-18T12:26:59;12.10;99.90
18717;DHT22;9487;50.892;6.906;2022-11-18T12:29:34;12.10;99.90
18717;DHT22;9487;50.892;6.906;2022-11-18T12:32:02;12.10;99.90
18717;DHT22;9487;50.892;6.906;2022-11-18T12:34:38;12.20;99.90
18717;DHT22;9487;50.892;6.906;2022-11-18T12:37:43;12.20;99.90
18717;DHT22;9487;50.892;6.906;2022-11-18T12:40:31;12.30;99.90
18717;DHT22;9487;50.892;6.906;2022-11-18T12:42:58;12.20;99.90
18717;DHT22;9487;50.892;6.906;2022-11-18T12:45:51;12.20;99.90
18717;DHT22;9487;50.892;6.906;2022-11-18T12:48:39;12.30;99.90
18717;DHT22;9487;50.892;6.906;2022-11-18T12:51:38;12.20;99.90
18717;DHT22;9487;50.892;6.906;2022-11-18T12:54:27;12.30;99.90
18717;DHT22;9487;50.892;6.906;2022-11-18T12:56:58;12.20;99.90
18717;DHT22;9487;50.892;6.906;2022-11-18T12:59:31;12.30;99.90
18717;DHT22;9487;50.892;6.906;2022-11-18T13:02:03;12.50;99.90
18717;DHT22;9487;50.892;6.906;2022-11-18T13:04:30;12.80;99.90
18717;DHT22;9487;50.892;6.906;2022-11-18T13:06:58;12.90;99.90
18717;DHT22;9487;50.892;6.906;2022-11-18T13:09:29;12.80;99.90
18717;DHT22;9487;50.892;6.906;2022-11-18T13:11:59;12.70;99.90
18717;DHT22;9487;50.892;6.906;2022-11-18T13:14:29;12.70;99.90
18717;DHT22;9487;50.892;6.906;2022-11-18T13:17:29;12.60;99.90
18717;DHT22;9487;50.892;6.906;2022-11-18T13:20:22;12.40;99.90
18717;DHT22;9487;50.892;6.906;2022-11-18T13:22:54;12.50;99.90
18717;DHT22;9487;50.892;6.906;2022-11-18T13:25:39;12.40;99.90
18717;DHT22;9487;50.892;6.906;2022-11-18T13:28:17;12.40;99.90
18717;DHT22;9487;50.892;6.906;2022-11-18T13:30:50;12.40;99.90
18717;DHT22;9487;50.892;6.906;2022-11-18T13:33:18;12.30;99.90
18717;DHT22;9487;50.892;6.906;2022-11-18T13:35:45;12.50;99.90
18717;DHT22;9487;50.892;6.906;2022-11-18T13:38:22;12.40;99.90
18717;DHT22;9487;50.892;6.906;2022-11-18T13:40:50;12.50;99.90
18717;DHT22;9487;50.892;6.906;2022-11-18T13:43:37;12.60;99.90
18717;DHT22;9487;50.892;6.906;2022-11-18T13:46:08;12.60;99.90
18717;DHT22;9487;50.892;6.906;2022-11-18T13:48:42;12.70;99.90
18717;DHT22;9487;50.892;6.906;2022-11-18T13:51:13;12.70;99.90
18717;DHT22;9487;50.892;6.906;2022-11-18T13:53:41;12.70;99.90
18717;DHT22;9487;50.892;6.906;2022-11-18T13:56:15;12.60;99.90
18717;DHT22;9487;50.892;6.906;2022-11-18T13:58:50;12.60;99.90
18717;DHT22;9487;50.892;6.906;2022-11-18T14:01:20;12.50;99.90
18717;DHT22;9487;50.892;6.906;2022-11-18T14:03:50;12.30;99.90
18717;DHT22;9487;50.892;6.906;2022-11-18T14:06:24;12.30;99.90
18717;DHT22;9487;50.892;6.906;2022-11-18T14:09:14;12.20;99.90
18717;DHT22;9487;50.892;6.906;2022-11-18T14:11:43;12.20;99.90
18717;DHT22;9487;50.892;6.906;2022-11-18T14:14:11;12.10;99.90
18717;DHT22;9487;50.892;6.906;2022-11-18T14:16:39;12.00;99.90
18717;DHT22;9487;50.892;6.906;2022-11-18T14:19:26;12.10;99.90
18717;DHT22;9487;50.892;6.906;2022-11-18T14:22:02;12.10;99.90
18717;DHT22;9487;50.892;6.906;2022-11-18T14:24:31;12.10;99.90
18717;DHT22;9487;50.892;6.906;2022-11-18T14:26:58;12.00;99.90
18717;DHT22;9487;50.892;6.906;2022-11-18T14:29:24;12.20;99.90
18717;DHT22;9487;50.892;6.906;2022-11-18T14:32:12;12.30;99.90
18717;DHT22;9487;50.892;6.906;2022-11-18T14:34:39;12.30;99.90
18717;DHT22;9487;50.892;6.906;2022-11-18T14:37:10;12.30;99.90
18717;DHT22;9487;50.892;6.906;2022-11-18T14:39:40;12.30;99.90
18717;DHT22;9487;50.892;6.906;2022-11-18T14:42:10;12.30;99.90
18717;DHT22;9487;50.892;6.906;2022-11-18T14:44:38;12.30;99.90
18717;DHT22;9487;50.892;6.906;2022-11-18T14:47:10;12.20;99.90
18717;DHT22;9487;50.892;6.906;2022-11-18T14:49:40;12.20;99.90
18717;DHT22;9487;50.892;6.906;2022-11-18T14:52:09;12.10;99.90
18717;DHT22;9487;50.892;6.906;2022-11-18T14:54:36;12.10;99.90
18717;DHT22;9487;50.892;6.906;2022-11-18T14:57:04;12.10;99.90
18717;DHT22;9487;50.892;6.906;2022-11-18T14:59:31;12.10;99.90
18717;DHT22;9487;50.892;6.906;2022-11-18T15:01:58;12.10;99.90
18717;DHT22;9487;50.892;6.906;2022-11-18T15:04:25;12.00;99.90
18717;DHT22;9487;50.892;6.906;2022-11-18T15:06:52;12.00;99.90
18717;DHT22;9487;50.892;6.906;2022-11-18T15:09:19;11.90;99.90
18717;DHT22;9487;50.892;6.906;2022-11-18T15:11:46;11.70;99.90
18717;DHT22;9487;50.892;6.906;2022-11-18T15:14:14;11.60;99.90
18717;DHT22;9487;50.892;6.906;2022-11-18T15:16:41;11.50;99.90
18717;DHT22;9487;50.892;6.906;2022-11-18T15:19:13;11.50;99.90
18717;DHT22;9487;50.892;6.906;2022-11-18T15:21:40;11.50;99.90
18717;DHT22;9487;50.892;6.906;2022-11-18T15:24:07;11.50;99.90
18717;DHT22;9487;50.892;6.906;2022-11-18T15:26:36;11.70;99.90
18717;DHT22;9487;50.892;6.906;2022-11-18T15:29:04;11.80;99.90
18717;DHT22;9487;50.892;6.906;2022-11-18T15:31:32;11.90;99.90
18717;DHT22;9487;50.892;6.906;2022-11-18T15:33:59;11.90;99.90
18717;DHT22;9487;50.892;6.906;2022-11-18T15:36:26;11.90;99.90
18717;DHT22;9487;50.892;6.906;2022-11-18T15:38:53;11.90;99.90
18717;DHT22;9487;50.892;6.906;2022-11-18T15:41:22;12.10;99.90
18717;DHT22;9487;50.892;6.906;2022-11-18T15:43:50;12.40;99.90
18717;DHT22;9487;50.892;6.906;2022-11-18T15:46:17;12.40;99.90
18717;DHT22;9487;50.892;6.906;2022-11-18T15:48:46;12.10;99.90
18717;DHT22;9487;50.892;6.906;2022-11-18T15:51:13;12.00;99.90
18717;DHT22;9487;50.892;6.906;2022-11-18T15:53:40;12.00;99.90
18717;DHT22;9487;50.892;6.906;2022-11-18T15:56:14;12.00;99.90
18717;DHT22;9487;50.892;6.906;2022-11-18T15:58:41;11.90;99.90
18717;DHT22;9487;50.892;6.906;2022-11-18T16:01:08;11.80;99.90
18717;DHT22;9487;50.892;6.906;2022-11-18T16:03:35;11.60;99.90
18717;DHT22;9487;50.892;6.906;2022-11-18T16:06:04;11.50;99.90
18717;DHT22;9487;50.892;6.906;2022-11-18T16:08:30;11.40;99.90
18717;DHT22;9487;50.892;6.906;2022-11-18T16:10:57;11.30;99.90
18717;DHT22;9487;50.892;6.906;2022-11-18T16:13:42;11.30;99.90
18717;DHT22;9487;50.892;6.906;2022-11-18T16:16:17;11.30;99.90
18717;DHT22;9487;50.892;6.906;2022-11-18T16:18:44;11.20;99.90
18717;DHT22;9487;50.892;6.906;2022-11-18T16:21:14;11.10;99.90